Portada
METAR-TAF:

METAR-TAF

Aeroports :

Aeroport de Palma - Son Sant Joan

Palma, Espanya

latitud: 39-33N, longitud: 002-44E, altitud: 4 m

Observació

L'informe es va fer fa 29 minuts, a les 07:00 UTC
Vent 7 kt del Nord-Oest
Temperatura 16°C
Humitat 63%
Pressió 1013 hPa
Visibilitat 10 km o més
Escasses núvols a una alçada de 2000 ft

METAR: LEPA 140700Z 32007KT 9999 FEW020 16/09 Q1013 NOSIG

Hora: 08:29 (07:29 UTC)

Pronòstic

L'informe es va fer fa 2 hores i 29 minuts, a les 05:00 UTC
Pronòstic vàlid del 14 a les 06 UTC al 15 a les 06 UTC
Vent 8 kt del Oest/Sud-Oest
Visibilitat 10 km o més
Escasses núvols a una alçada de 2000 ft
Evolucionant progressivament
l' 14 a les 08 UTC al 14 a les 10 UTC
Vent 10 kt del Oest/Sud-Oest

TAF: LEPA 140500Z 1406/1506 24008KT 9999 FEW020 TX19/1413Z TN10/1406Z BECMG 1408/1410 25010KT

Observacions i pronòstics meteorològics de més de 4000 aeroports (METAR i TAF).

Les estacions disponibles són els punts grocs i vermells al mapa.

Posi el ratolí al punt desitjat per veure el nom de l'estació.

Feu clic per veure les observacions i els pronòstics meteorològics.

Per canviar el mapa: feu clic els botons verds amb una creu de color negre per apropar; al botó verd amb un guió per allunyar la imatge; o en les fletxes verdes per a mapes adjacents.


METAR-TAF: